createdAt,value
2017-11-24T00:01:15.039Z,17.87
2017-11-24T00:03:43.402Z,17.90
2017-11-24T00:06:12.480Z,22.37
2017-11-24T00:08:40.821Z,18.03
2017-11-24T00:11:09.147Z,20.67
2017-11-24T00:13:38.268Z,20.70
2017-11-24T00:16:06.656Z,13.37
2017-11-24T00:18:34.980Z,18.10
2017-11-24T00:21:03.307Z,17.10
2017-11-24T00:23:31.624Z,13.70
2017-11-24T00:25:59.981Z,13.07
2017-11-24T00:28:28.299Z,13.57
2017-11-24T00:30:57.429Z,16.30
2017-11-24T00:33:25.748Z,13.90
2017-11-24T00:35:54.051Z,15.53
2017-11-24T00:38:22.403Z,13.73
2017-11-24T00:40:50.709Z,14.20
2017-11-24T00:43:19.818Z,12.23
2017-11-24T00:45:48.877Z,13.90
2017-11-24T00:48:18.009Z,14.73
2017-11-24T00:50:46.315Z,12.07
2017-11-24T00:53:14.648Z,16.27
2017-11-24T00:55:43.737Z,17.17
2017-11-24T00:58:12.098Z,15.93
2017-11-24T01:00:40.407Z,16.50
2017-11-24T01:03:09.468Z,14.80
2017-11-24T01:05:37.794Z,18.57
2017-11-24T01:08:06.113Z,14.93
2017-11-24T01:10:35.240Z,17.90
2017-11-24T01:13:04.318Z,16.50
2017-11-24T01:15:32.638Z,14.60
2017-11-24T01:18:01.704Z,15.53
2017-11-24T01:20:30.035Z,14.17
2017-11-24T01:22:58.348Z,11.40
2017-11-24T01:25:26.674Z,12.27
2017-11-24T01:27:55.014Z,21.13
2017-11-24T01:30:24.087Z,11.97
2017-11-24T01:32:52.408Z,10.00
2017-11-24T01:35:20.715Z,11.60
2017-11-24T01:37:49.044Z,10.70
2017-11-24T01:40:17.358Z,10.50
2017-11-24T01:42:45.724Z,10.43
2017-11-24T01:45:14.041Z,12.90
2017-11-24T01:47:43.140Z,15.93
2017-11-24T01:50:11.473Z,10.67
2017-11-24T01:52:39.789Z,12.90
2017-11-24T01:55:09.239Z,11.50
2017-11-24T01:57:37.575Z,11.13
2017-11-24T02:00:05.913Z,10.47
2017-11-24T02:02:34.253Z,12.03
2017-11-24T02:05:04.127Z,12.03
2017-11-24T02:07:33.239Z,11.23
2017-11-24T02:10:02.334Z,9.27
2017-11-24T02:12:30.706Z,12.57
2017-11-24T02:14:59.805Z,9.30
2017-11-24T02:17:28.139Z,10.97
2017-11-24T02:19:56.448Z,10.93
2017-11-24T02:22:24.788Z,18.33
2017-11-24T02:24:53.154Z,12.87
2017-11-24T02:27:21.908Z,11.50
2017-11-24T02:29:50.215Z,10.63
2017-11-24T02:32:19.316Z,15.63
2017-11-24T02:34:47.628Z,10.80
2017-11-24T02:37:15.927Z,11.43
2017-11-24T02:39:44.272Z,11.73
2017-11-24T02:42:12.588Z,9.70
2017-11-24T02:44:40.915Z,14.87
2017-11-24T02:47:10.225Z,14.50
2017-11-24T02:49:39.160Z,14.23
2017-11-24T02:52:08.239Z,16.70
2017-11-24T02:54:38.446Z,18.20
2017-11-24T02:57:06.799Z,13.90
2017-11-24T02:59:35.166Z,15.90
2017-11-24T03:02:03.468Z,13.80
2017-11-24T03:04:31.844Z,17.30
2017-11-24T03:07:00.153Z,18.60
2017-11-24T03:09:30.096Z,29.90
2017-11-24T03:11:58.419Z,14.87
2017-11-24T03:14:26.745Z,21.43
2017-11-24T03:16:55.119Z,14.67
2017-11-24T03:19:23.431Z,22.57
2017-11-24T03:21:51.761Z,14.10
2017-11-24T03:24:20.865Z,12.60
2017-11-24T03:26:49.949Z,14.80
2017-11-24T03:29:18.448Z,12.47
2017-11-24T03:31:46.785Z,11.27
2017-11-24T03:34:15.913Z,14.63
2017-11-24T03:36:44.991Z,14.40
2017-11-24T03:39:17.862Z,14.90
2017-11-24T03:41:46.175Z,16.37
2017-11-24T03:44:14.497Z,14.93
2017-11-24T03:46:42.852Z,14.93
2017-11-24T03:49:11.144Z,14.47
2017-11-24T03:51:39.456Z,14.43
2017-11-24T03:54:07.802Z,12.13
2017-11-24T03:56:36.099Z,13.40
2017-11-24T03:59:04.409Z,17.27
2017-11-24T04:01:33.512Z,18.67
2017-11-24T04:04:01.872Z,17.37
2017-11-24T04:06:30.156Z,7.23
2017-11-24T04:08:59.219Z,12.10
2017-11-24T04:11:27.549Z,7.67
2017-11-24T04:13:55.840Z,7.30
2017-11-24T04:16:24.133Z,9.00
2017-11-24T04:18:52.486Z,8.60
2017-11-24T04:21:20.826Z,7.10
2017-11-24T04:23:49.920Z,8.67
2017-11-24T04:26:18.219Z,11.30
2017-11-24T04:28:46.544Z,10.13
2017-11-24T04:31:14.832Z,5.83
2017-11-24T04:33:43.159Z,6.33
2017-11-24T04:36:11.495Z,11.87
2017-11-24T04:38:39.820Z,14.10
2017-11-24T04:41:08.130Z,13.60
2017-11-24T04:43:37.248Z,7.77
2017-11-24T04:46:05.588Z,14.10
2017-11-24T04:48:33.867Z,11.03
2017-11-24T04:51:02.206Z,11.27
2017-11-24T04:53:30.500Z,7.83
2017-11-24T04:55:58.874Z,17.40
2017-11-24T04:58:27.189Z,17.17
2017-11-24T05:00:55.497Z,23.53
2017-11-24T05:03:23.826Z,20.20
2017-11-24T05:05:52.150Z,22.10
2017-11-24T05:08:21.324Z,20.90
2017-11-24T05:10:50.415Z,36.40
2017-11-24T05:13:18.756Z,35.53
2017-11-24T05:15:47.059Z,37.87
2017-11-24T05:18:15.371Z,25.57
2017-11-24T05:20:44.464Z,20.53
2017-11-24T05:23:13.572Z,24.37
2017-11-24T05:25:41.896Z,23.73
2017-11-24T05:28:10.245Z,26.13
2017-11-24T05:30:38.573Z,29.80
2017-11-24T05:33:07.659Z,27.93
2017-11-24T05:35:36.792Z,28.77
2017-11-24T05:38:05.123Z,27.10
2017-11-24T05:40:33.475Z,34.37
2017-11-24T05:43:01.790Z,43.40
2017-11-24T05:45:30.152Z,26.37
2017-11-24T05:47:58.475Z,23.33
2017-11-24T05:50:26.819Z,19.70
2017-11-24T05:52:55.146Z,23.10
2017-11-24T05:55:23.503Z,32.90
2017-11-24T05:57:51.840Z,28.27
2017-11-24T06:00:20.972Z,29.07
2017-11-24T06:02:50.086Z,20.00
2017-11-24T06:05:18.430Z,23.00
2017-11-24T06:07:46.694Z,19.50
2017-11-24T06:10:15.049Z,19.40
2017-11-24T06:12:43.373Z,19.00
2017-11-24T06:15:12.448Z,22.27
2017-11-24T06:17:40.794Z,25.40
2017-11-24T06:20:09.144Z,28.80
2017-11-24T06:22:37.507Z,28.83
2017-11-24T06:25:06.577Z,22.23
2017-11-24T06:27:34.920Z,22.33
2017-11-24T06:30:03.273Z,21.00
2017-11-24T06:32:31.597Z,21.67
2017-11-24T06:34:59.939Z,23.00
2017-11-24T06:37:28.644Z,20.87
2017-11-24T06:39:57.022Z,20.53
2017-11-24T06:42:25.340Z,19.20
2017-11-24T06:44:54.434Z,24.60
2017-11-24T06:47:23.534Z,23.57
2017-11-24T06:49:51.869Z,20.80
2017-11-24T06:52:20.220Z,17.70
2017-11-24T06:54:48.528Z,23.73
2017-11-24T06:57:17.633Z,23.07
2017-11-24T06:59:46.764Z,22.42
2017-11-24T07:02:15.098Z,22.37
2017-11-24T07:04:43.498Z,26.57
2017-11-24T07:07:11.859Z,15.30
2017-11-24T07:09:40.204Z,18.90
2017-11-24T07:12:08.539Z,11.67
2017-11-24T07:14:37.627Z,20.97
2017-11-24T07:17:06.715Z,18.70
2017-11-24T07:19:35.686Z,18.97
2017-11-24T07:22:04.077Z,19.40
2017-11-24T07:24:32.399Z,23.50
2017-11-24T07:27:00.720Z,21.33
2017-11-24T07:29:29.044Z,20.40
2017-11-24T07:31:57.344Z,23.57
2017-11-24T07:34:25.748Z,21.30
2017-11-24T07:36:54.043Z,20.13
2017-11-24T07:39:22.371Z,22.37
2017-11-24T07:41:50.675Z,26.67
2017-11-24T07:44:19.017Z,26.10
2017-11-24T07:46:47.328Z,25.63
2017-11-24T07:49:15.619Z,28.03
2017-11-24T07:51:44.956Z,24.63
2017-11-24T07:54:14.040Z,28.37
2017-11-24T07:56:43.132Z,26.97
2017-11-24T07:59:12.243Z,23.77
2017-11-24T08:01:40.591Z,25.03
2017-11-24T08:04:09.672Z,29.87
2017-11-24T08:06:38.020Z,24.27
2017-11-24T08:09:06.376Z,27.57
2017-11-24T08:11:34.838Z,21.87
2017-11-24T08:14:03.180Z,18.87
2017-11-24T08:16:31.496Z,22.60
2017-11-24T08:18:59.935Z,21.30
2017-11-24T08:21:29.155Z,18.67
2017-11-24T08:23:57.694Z,19.13
2017-11-24T08:26:26.025Z,22.13
2017-11-24T08:28:55.109Z,24.53
2017-11-24T08:31:24.652Z,25.63
2017-11-24T08:33:52.974Z,26.00
2017-11-24T08:36:21.309Z,24.73
2017-11-24T08:38:49.706Z,29.73
2017-11-24T08:41:18.133Z,23.90
2017-11-24T08:43:47.207Z,30.03
2017-11-24T08:46:22.114Z,29.77
2017-11-24T08:48:56.011Z,20.60
2017-11-24T08:51:24.317Z,23.70
2017-11-24T08:53:52.624Z,20.60
2017-11-24T08:56:21.821Z,19.83
2017-11-24T08:58:50.883Z,20.87
2017-11-24T09:01:19.292Z,20.17
2017-11-24T09:03:47.655Z,16.00
2017-11-24T09:06:22.179Z,24.00
2017-11-24T09:08:51.276Z,21.40
2017-11-24T09:11:20.352Z,20.10
2017-11-24T09:13:48.678Z,23.07
2017-11-24T09:16:16.975Z,16.87
2017-11-24T09:18:45.748Z,19.90
2017-11-24T09:21:14.036Z,19.93
2017-11-24T09:23:42.381Z,24.37
2017-11-24T09:26:11.455Z,24.30
2017-11-24T09:28:39.832Z,24.83
2017-11-24T09:31:08.197Z,22.40
2017-11-24T09:33:36.487Z,21.90
2017-11-24T09:36:06.172Z,23.07
2017-11-24T09:38:34.580Z,27.40
2017-11-24T09:41:03.672Z,26.03
2017-11-24T09:43:32.217Z,33.73
2017-11-24T09:46:00.573Z,27.13
2017-11-24T09:48:28.875Z,26.13
2017-11-24T09:50:57.204Z,32.23
2017-11-24T09:53:25.521Z,21.13
2017-11-24T09:55:53.851Z,25.73
2017-11-24T09:58:22.917Z,34.07
2017-11-24T10:00:51.188Z,15.63
2017-11-24T10:03:19.786Z,19.57
2017-11-24T10:05:48.208Z,18.83
2017-11-24T10:08:16.553Z,15.00
2017-11-24T10:10:45.625Z,16.83
2017-11-24T10:13:13.953Z,21.67
2017-11-24T10:15:42.310Z,19.87
2017-11-24T10:18:10.906Z,19.30
2017-11-24T10:20:45.031Z,24.53
2017-11-24T10:23:14.704Z,21.07
2017-11-24T10:25:44.582Z,33.77
2017-11-24T10:28:12.889Z,29.57
2017-11-24T10:30:41.992Z,23.13
2017-11-24T10:33:11.073Z,28.67
2017-11-24T10:35:40.175Z,23.67
2017-11-24T10:38:09.239Z,14.73
2017-11-24T10:40:37.573Z,23.43
2017-11-24T10:43:05.878Z,32.67
2017-11-24T10:45:34.194Z,26.93
2017-11-24T10:48:02.509Z,29.90
2017-11-24T10:50:30.839Z,22.83
2017-11-24T10:52:59.138Z,26.47
2017-11-24T10:55:28.200Z,19.00
2017-11-24T10:57:56.698Z,12.27
2017-11-24T11:00:25.784Z,14.93
2017-11-24T11:02:54.095Z,17.83
2017-11-24T11:05:22.391Z,41.87
2017-11-24T11:07:50.724Z,16.67
2017-11-24T11:10:19.017Z,17.87
2017-11-24T11:12:47.356Z,15.17
2017-11-24T11:15:15.650Z,15.50
2017-11-24T11:17:44.728Z,15.10
2017-11-24T11:20:13.045Z,20.87
2017-11-24T11:22:41.349Z,16.50
2017-11-24T11:25:11.098Z,18.47
2017-11-24T11:27:40.217Z,16.97
2017-11-24T11:30:09.326Z,16.13
2017-11-24T11:32:37.641Z,15.23
2017-11-24T11:35:05.980Z,14.93
2017-11-24T11:37:34.312Z,18.47
2017-11-24T11:40:03.429Z,22.40
2017-11-24T11:42:32.572Z,28.10
2017-11-24T11:45:00.878Z,21.27
2017-11-24T11:47:30.092Z,19.47
2017-11-24T11:49:59.177Z,17.13
2017-11-24T11:52:27.517Z,19.07
2017-11-24T11:54:55.800Z,18.13
2017-11-24T11:57:24.118Z,18.27
2017-11-24T11:59:53.195Z,40.27
2017-11-24T12:02:21.526Z,19.97
2017-11-24T12:04:49.899Z,19.43
2017-11-24T12:07:18.331Z,35.07
2017-11-24T12:09:46.652Z,14.33
2017-11-24T12:12:15.714Z,17.33
2017-11-24T12:14:44.825Z,13.63
2017-11-24T12:17:13.901Z,13.53
2017-11-24T12:19:42.247Z,17.60
2017-11-24T12:22:10.553Z,24.77
2017-11-24T12:24:39.693Z,19.93
2017-11-24T12:27:08.033Z,21.43
2017-11-24T12:29:37.111Z,15.07
2017-11-24T12:32:05.469Z,20.13
2017-11-24T12:34:33.761Z,8.30
2017-11-24T12:37:02.103Z,6.37
2017-11-24T12:39:30.409Z,8.00
2017-11-24T12:41:58.933Z,6.30
2017-11-24T12:44:27.233Z,9.30
2017-11-24T12:46:55.548Z,10.03
2017-11-24T12:49:23.871Z,6.30
2017-11-24T12:51:52.163Z,9.60
2017-11-24T12:54:20.509Z,13.03
2017-11-24T12:56:48.924Z,7.90
2017-11-24T12:59:17.316Z,8.57
2017-11-24T13:01:45.647Z,6.67
2017-11-24T13:04:13.944Z,7.13
2017-11-24T13:06:42.291Z,8.30
2017-11-24T13:09:11.397Z,8.20
2017-11-24T13:11:39.687Z,7.03
2017-11-24T13:14:08.018Z,11.70
2017-11-24T13:16:37.107Z,14.77
2017-11-24T13:19:05.420Z,13.80
2017-11-24T13:21:34.513Z,13.97
2017-11-24T13:24:03.579Z,14.70
2017-11-24T13:26:32.708Z,15.67
2017-11-24T13:29:01.088Z,10.67
2017-11-24T13:31:29.431Z,14.10
2017-11-24T13:33:57.777Z,19.37
2017-11-24T13:36:26.091Z,13.60
2017-11-24T13:38:54.710Z,17.30
2017-11-24T13:41:23.031Z,15.67
2017-11-24T13:43:51.327Z,15.10
2017-11-24T13:46:19.639Z,16.13
2017-11-24T13:48:47.966Z,17.33
2017-11-24T13:51:16.251Z,16.73
2017-11-24T13:53:44.876Z,18.20
2017-11-24T13:56:13.199Z,16.73
2017-11-24T13:58:41.532Z,16.13
2017-11-24T14:01:09.850Z,20.33
2017-11-24T14:03:38.177Z,19.03
2017-11-24T14:06:06.500Z,16.27
2017-11-24T14:08:34.816Z,19.40
2017-11-24T14:11:03.938Z,21.77
2017-11-24T14:13:32.297Z,16.07
2017-11-24T14:16:01.360Z,18.03
2017-11-24T14:18:29.677Z,25.17
2017-11-24T14:20:58.356Z,26.17
2017-11-24T14:23:27.434Z,20.00
2017-11-24T14:25:56.529Z,23.83
2017-11-24T14:28:25.604Z,18.83
2017-11-24T14:30:53.957Z,24.20
2017-11-24T14:33:22.292Z,20.50
2017-11-24T14:35:51.391Z,20.93
2017-11-24T14:38:19.700Z,20.87
2017-11-24T14:40:48.057Z,18.20
2017-11-24T14:43:16.404Z,19.80
2017-11-24T14:45:45.515Z,17.33
2017-11-24T14:48:28.844Z,15.13
2017-11-24T14:50:57.918Z,21.20
2017-11-24T14:53:27.008Z,19.60
2017-11-24T14:55:55.344Z,15.20
2017-11-24T14:58:23.708Z,15.80
2017-11-24T15:00:52.874Z,17.20
2017-11-24T15:03:21.195Z,13.33
2017-11-24T15:05:49.580Z,20.93
2017-11-24T15:08:17.980Z,14.83
2017-11-24T15:10:46.304Z,19.73
2017-11-24T15:13:15.356Z,13.67
2017-11-24T15:15:43.684Z,12.90
2017-11-24T15:18:11.981Z,15.90
2017-11-24T15:20:40.394Z,13.77
2017-11-24T15:23:08.699Z,17.30
2017-11-24T15:25:37.057Z,14.80
2017-11-24T15:28:05.440Z,12.80
2017-11-24T15:30:33.758Z,15.17
2017-11-24T15:33:02.924Z,21.87
2017-11-24T15:35:32.042Z,24.53
2017-11-24T15:38:00.569Z,17.87
2017-11-24T15:40:28.859Z,13.87
2017-11-24T15:42:57.172Z,12.63
2017-11-24T15:45:25.460Z,15.00
2017-11-24T15:47:53.811Z,22.13
2017-11-24T15:50:22.265Z,17.03
2017-11-24T15:52:50.627Z,15.03
2017-11-24T15:55:18.911Z,8.97
2017-11-24T15:57:47.224Z,12.43
2017-11-24T16:00:15.564Z,21.20
2017-11-24T16:02:43.957Z,12.67
2017-11-24T16:05:12.324Z,10.73
2017-11-24T16:07:40.667Z,10.10
2017-11-24T16:10:09.024Z,8.80
2017-11-24T16:12:37.351Z,10.63
2017-11-24T16:15:05.684Z,31.40
2017-11-24T16:17:33.999Z,20.73
2017-11-24T16:20:02.760Z,13.53
2017-11-24T16:22:31.108Z,17.73
2017-11-24T16:24:59.454Z,19.50
2017-11-24T16:27:28.549Z,18.40
2017-11-24T16:29:56.911Z,15.00
2017-11-24T16:32:25.236Z,21.30
2017-11-24T16:34:53.557Z,18.40
2017-11-24T16:37:22.177Z,17.77
2017-11-24T16:39:50.728Z,17.00
2017-11-24T16:42:19.127Z,16.50
2017-11-24T16:44:48.941Z,20.53
2017-11-24T16:47:18.052Z,17.30
2017-11-24T16:49:47.240Z,25.20
2017-11-24T16:52:16.327Z,24.27
2017-11-24T16:54:44.651Z,15.77
2017-11-24T16:57:13.006Z,20.87
2017-11-24T16:59:41.491Z,29.57
2017-11-24T17:02:09.856Z,35.73
2017-11-24T17:04:38.967Z,27.30
2017-11-24T17:07:07.283Z,29.70
2017-11-24T17:09:36.427Z,24.50
2017-11-24T17:12:04.791Z,18.27
2017-11-24T17:14:33.119Z,13.53
2017-11-24T17:17:01.457Z,15.77
2017-11-24T17:19:29.780Z,17.47
2017-11-24T17:21:58.112Z,16.40
2017-11-24T17:24:26.473Z,14.97
2017-11-24T17:26:54.836Z,13.70
2017-11-24T17:29:23.931Z,16.77
2017-11-24T17:31:52.330Z,13.77
2017-11-24T17:34:20.768Z,15.80
2017-11-24T17:36:49.089Z,13.37
2017-11-24T17:39:18.218Z,16.20
2017-11-24T17:41:46.605Z,19.10
2017-11-24T17:44:15.684Z,27.43
2017-11-24T17:46:44.401Z,22.90
2017-11-24T17:49:12.753Z,20.17
2017-11-24T17:51:41.084Z,20.43
2017-11-24T17:54:10.629Z,22.50
2017-11-24T17:56:39.044Z,20.73
2017-11-24T17:59:07.484Z,21.43
2017-11-24T18:01:35.783Z,23.63
2017-11-24T18:04:04.085Z,24.10
2017-11-24T18:06:33.813Z,27.00
2017-11-24T18:09:02.942Z,23.53
2017-11-24T18:11:32.911Z,24.63
2017-11-24T18:14:01.223Z,29.43
2017-11-24T18:16:29.552Z,31.83
2017-11-24T18:18:58.016Z,58.00
2017-11-24T18:21:26.359Z,32.27
2017-11-24T18:23:54.672Z,28.93
2017-11-24T18:26:23.033Z,28.13
2017-11-24T18:28:51.371Z,26.60
2017-11-24T18:31:19.705Z,42.20
2017-11-24T18:33:48.085Z,33.90
2017-11-24T18:36:16.397Z,23.83
2017-11-24T18:38:44.751Z,23.37
2017-11-24T18:41:13.855Z,22.77
2017-11-24T18:43:42.235Z,27.30
2017-11-24T18:46:11.329Z,28.40
2017-11-24T18:48:39.674Z,24.30
2017-11-24T18:51:08.052Z,21.30
2017-11-24T18:53:37.181Z,24.00
2017-11-24T18:56:05.507Z,26.33
2017-11-24T18:58:33.888Z,28.67
2017-11-24T19:01:02.420Z,30.40
2017-11-24T19:03:30.786Z,32.10
2017-11-24T19:05:59.923Z,24.10
2017-11-24T19:08:28.268Z,21.57
2017-11-24T19:10:57.407Z,21.07
2017-11-24T19:13:25.756Z,23.93
2017-11-24T19:15:54.857Z,21.70
2017-11-24T19:18:23.564Z,25.13
2017-11-24T19:20:51.875Z,25.50
2017-11-24T19:23:20.232Z,23.73
2017-11-24T19:25:48.574Z,24.73
2017-11-24T19:28:17.724Z,24.13
2017-11-24T19:30:46.045Z,25.83
2017-11-24T19:33:14.552Z,29.53
2017-11-24T19:35:43.003Z,28.93
2017-11-24T19:38:11.339Z,28.77
2017-11-24T19:40:39.706Z,27.33
2017-11-24T19:43:08.028Z,29.27
2017-11-24T19:45:37.257Z,25.83
2017-11-24T19:48:06.301Z,32.40
2017-11-24T19:50:35.444Z,29.23
2017-11-24T19:53:03.763Z,28.33
2017-11-24T19:55:32.862Z,33.47
2017-11-24T19:58:01.198Z,34.57
2017-11-24T20:00:29.570Z,38.33
2017-11-24T20:02:58.660Z,32.77
2017-11-24T20:05:26.988Z,36.37
2017-11-24T20:07:55.511Z,35.43
2017-11-24T20:10:23.851Z,36.73
2017-11-24T20:12:52.151Z,39.20
2017-11-24T20:15:20.475Z,37.37
2017-11-24T20:17:48.822Z,38.57
2017-11-24T20:20:17.168Z,36.17
2017-11-24T20:22:46.276Z,35.00
2017-11-24T20:25:15.449Z,39.10
2017-11-24T20:27:44.499Z,34.00
2017-11-24T20:30:12.892Z,34.90
2017-11-24T20:32:41.887Z,37.00
2017-11-24T20:35:10.252Z,34.70
2017-11-24T20:37:38.600Z,29.90
2017-11-24T20:40:06.974Z,32.17
2017-11-24T20:42:36.122Z,34.53
2017-11-24T20:45:04.558Z,36.10
2017-11-24T20:47:32.958Z,42.23
2017-11-24T20:50:01.269Z,40.53
2017-11-24T20:52:29.592Z,39.53
2017-11-24T20:54:58.687Z,32.63
2017-11-24T20:57:27.048Z,36.73
2017-11-24T20:59:56.214Z,41.77
2017-11-24T21:02:24.731Z,37.40
2017-11-24T21:04:53.862Z,33.87
2017-11-24T21:07:22.219Z,33.77
2017-11-24T21:09:50.666Z,40.90
2017-11-24T21:12:19.078Z,46.60
2017-11-24T21:14:48.886Z,41.27
2017-11-24T21:17:17.951Z,40.87
2017-11-24T21:19:47.124Z,43.17
2017-11-24T21:22:15.759Z,46.13
2017-11-24T21:24:44.100Z,47.93
2017-11-24T21:27:12.441Z,48.10
2017-11-24T21:29:40.757Z,42.17
2017-11-24T21:32:10.002Z,41.43
2017-11-24T21:34:38.386Z,43.27
2017-11-24T21:37:07.460Z,44.03
2017-11-24T21:39:35.819Z,40.73
2017-11-24T21:42:04.149Z,39.37
2017-11-24T21:44:33.320Z,41.20
2017-11-24T21:47:01.678Z,38.10
2017-11-24T21:49:30.965Z,41.80
2017-11-24T21:51:59.343Z,41.23
2017-11-24T21:54:27.630Z,44.53
2017-11-24T21:56:55.921Z,40.57
2017-11-24T21:59:25.004Z,41.73
2017-11-24T22:01:53.349Z,35.03
2017-11-24T22:04:21.660Z,39.00
2017-11-24T22:06:49.965Z,42.63
2017-11-24T22:09:18.268Z,43.00
2017-11-24T22:11:47.336Z,47.13
2017-11-24T22:14:15.696Z,44.80
2017-11-24T22:16:44.772Z,41.83
2017-11-24T22:19:13.071Z,43.23
2017-11-24T22:21:42.163Z,43.67
2017-11-24T22:24:11.220Z,41.43
2017-11-24T22:26:40.353Z,43.50
2017-11-24T22:29:09.425Z,46.50
2017-11-24T22:31:38.531Z,45.20
2017-11-24T22:34:07.591Z,45.43
2017-11-24T22:36:35.929Z,41.17
2017-11-24T22:39:04.276Z,46.77
2017-11-24T22:41:32.579Z,45.97
2017-11-24T22:44:00.927Z,43.57
2017-11-24T22:46:29.251Z,51.47
2017-11-24T22:48:57.574Z,51.53
2017-11-24T22:51:25.868Z,46.10
2017-11-24T22:53:54.954Z,44.53
2017-11-24T22:56:23.232Z,44.33
2017-11-24T22:58:51.559Z,46.37
2017-11-24T23:01:19.871Z,48.20
2017-11-24T23:03:48.972Z,43.30
2017-11-24T23:06:17.287Z,41.90
2017-11-24T23:08:45.601Z,46.90
2017-11-24T23:11:13.961Z,46.50
2017-11-24T23:13:42.298Z,43.43
2017-11-24T23:16:10.655Z,45.20
2017-11-24T23:18:38.995Z,39.30
2017-11-24T23:21:07.317Z,29.13
2017-11-24T23:23:35.677Z,28.47
2017-11-24T23:26:04.080Z,42.43
2017-11-24T23:28:32.428Z,37.23
2017-11-24T23:31:00.736Z,40.83
2017-11-24T23:33:29.831Z,41.97
2017-11-24T23:35:58.159Z,49.53
2017-11-24T23:38:26.506Z,45.80
2017-11-24T23:40:54.836Z,45.00
2017-11-24T23:43:23.967Z,42.83
2017-11-24T23:45:52.267Z,36.80
2017-11-24T23:48:20.663Z,35.10
2017-11-24T23:50:48.963Z,42.03
2017-11-24T23:53:17.274Z,43.63
2017-11-24T23:55:46.359Z,43.70
2017-11-24T23:58:15.412Z,41.40
